sensor_id;sensor_type;location;lat;lon;timestamp;pressure;altitude;pressure_sealevel;temperature;humidity
36598;BME280;22607;49.550;11.940;2023-04-06T00:02:03;97157.19;;;-0.08;83.22
36598;BME280;22607;49.550;11.940;2023-04-06T00:04:31;97160.19;;;-0.29;84.56
36598;BME280;22607;49.550;11.940;2023-04-06T00:06:57;97157.31;;;-0.24;84.09
36598;BME280;22607;49.550;11.940;2023-04-06T00:09:24;97156.53;;;-0.12;79.13
36598;BME280;22607;49.550;11.940;2023-04-06T00:11:50;97145.19;;;-0.09;77.97
36598;BME280;22607;49.550;11.940;2023-04-06T00:14:17;97153.09;;;-0.25;79.86
36598;BME280;22607;49.550;11.940;2023-04-06T00:16:43;97145.03;;;-0.48;85.35
36598;BME280;22607;49.550;11.940;2023-04-06T00:19:10;97146.84;;;-0.50;85.39
36598;BME280;22607;49.550;11.940;2023-04-06T00:21:36;97152.41;;;-0.57;86.06
36598;BME280;22607;49.550;11.940;2023-04-06T00:24:02;97144.31;;;-0.65;85.49
36598;BME280;22607;49.550;11.940;2023-04-06T00:26:30;97148.06;;;-0.56;83.22
36598;BME280;22607;49.550;11.940;2023-04-06T00:28:56;97148.44;;;-0.62;83.93
36598;BME280;22607;49.550;11.940;2023-04-06T00:31:24;97151.13;;;-0.78;86.53
36598;BME280;22607;49.550;11.940;2023-04-06T00:33:51;97152.06;;;-0.80;86.53
36598;BME280;22607;49.550;11.940;2023-04-06T00:36:17;97144.59;;;-0.70;86.66
36598;BME280;22607;49.550;11.940;2023-04-06T00:38:43;97146.03;;;-0.66;86.92
36598;BME280;22607;49.550;11.940;2023-04-06T00:41:10;97141.50;;;-0.47;85.48
36598;BME280;22607;49.550;11.940;2023-04-06T00:43:36;97141.97;;;-0.41;83.77
36598;BME280;22607;49.550;11.940;2023-04-06T00:46:02;97131.75;;;-0.57;86.23
36598;BME280;22607;49.550;11.940;2023-04-06T00:48:29;97134.88;;;-0.51;84.91
36598;BME280;22607;49.550;11.940;2023-04-06T00:50:57;97144.44;;;-0.39;81.98
36598;BME280;22607;49.550;11.940;2023-04-06T00:53:24;97135.81;;;-0.52;85.97
36598;BME280;22607;49.550;11.940;2023-04-06T00:55:50;97141.75;;;-0.80;87.91
36598;BME280;22607;49.550;11.940;2023-04-06T00:58:17;97147.72;;;-0.79;85.70
36598;BME280;22607;49.550;11.940;2023-04-06T01:00:43;97143.94;;;-0.88;87.43
36598;BME280;22607;49.550;11.940;2023-04-06T01:03:10;97143.94;;;-0.88;86.39
36598;BME280;22607;49.550;11.940;2023-04-06T01:05:36;97143.78;;;-0.85;85.59
36598;BME280;22607;49.550;11.940;2023-04-06T01:08:06;97131.97;;;-0.74;85.53
36598;BME280;22607;49.550;11.940;2023-04-06T01:10:33;97135.75;;;-0.80;88.33
36598;BME280;22607;49.550;11.940;2023-04-06T01:13:00;97139.16;;;-0.94;90.64
36598;BME280;22607;49.550;11.940;2023-04-06T01:15:27;97133.13;;;-0.66;88.22
36598;BME280;22607;49.550;11.940;2023-04-06T01:17:54;97135.59;;;-0.49;86.51
36598;BME280;22607;49.550;11.940;2023-04-06T01:20:21;97143.34;;;-0.49;86.54
36598;BME280;22607;49.550;11.940;2023-04-06T01:22:47;97137.09;;;-0.60;91.22
36598;BME280;22607;49.550;11.940;2023-04-06T01:25:13;97131.00;;;-0.59;90.48
36598;BME280;22607;49.550;11.940;2023-04-06T01:27:40;97136.22;;;-0.88;93.90
36598;BME280;22607;49.550;11.940;2023-04-06T01:30:07;97132.03;;;-0.61;91.73
36598;BME280;22607;49.550;11.940;2023-04-06T01:32:34;97129.38;;;-0.74;92.78
36598;BME280;22607;49.550;11.940;2023-04-06T01:35:00;97134.53;;;-0.74;94.62
36598;BME280;22607;49.550;11.940;2023-04-06T01:37:27;97135.84;;;-0.67;94.14
36598;BME280;22607;49.550;11.940;2023-04-06T01:39:53;97130.13;;;-0.72;96.03
36598;BME280;22607;49.550;11.940;2023-04-06T01:42:19;97125.16;;;-0.75;95.83
36598;BME280;22607;49.550;11.940;2023-04-06T01:44:46;97133.13;;;-0.66;96.04
36598;BME280;22607;49.550;11.940;2023-04-06T01:47:12;97134.06;;;-0.67;96.41
36598;BME280;22607;49.550;11.940;2023-04-06T01:49:39;97136.16;;;-0.59;97.23
36598;BME280;22607;49.550;11.940;2023-04-06T01:52:06;97126.06;;;-0.62;97.65
36598;BME280;22607;49.550;11.940;2023-04-06T01:54:32;97132.66;;;-0.43;95.74
36598;BME280;22607;49.550;11.940;2023-04-06T01:56:59;97121.59;;;-0.45;96.57
36598;BME280;22607;49.550;11.940;2023-04-06T01:59:25;97129.88;;;-0.40;96.72
36598;BME280;22607;49.550;11.940;2023-04-06T02:01:52;97131.59;;;-0.54;99.83
36598;BME280;22607;49.550;11.940;2023-04-06T02:04:18;97136.91;;;-0.57;100.00
36598;BME280;22607;49.550;11.940;2023-04-06T02:06:44;97130.72;;;-0.40;99.46
36598;BME280;22607;49.550;11.940;2023-04-06T02:09:11;97127.94;;;-0.36;98.78
36598;BME280;22607;49.550;11.940;2023-04-06T02:11:38;97127.19;;;-0.38;98.52
36598;BME280;22607;49.550;11.940;2023-04-06T02:14:05;97126.38;;;-0.39;100.00
36598;BME280;22607;49.550;11.940;2023-04-06T02:16:31;97120.53;;;-0.28;97.88
36598;BME280;22607;49.550;11.940;2023-04-06T02:19:00;97116.06;;;-0.11;94.38
36598;BME280;22607;49.550;11.940;2023-04-06T02:21:26;97109.81;;;-0.22;93.67
36598;BME280;22607;49.550;11.940;2023-04-06T02:23:52;97115.63;;;-0.18;93.33
36598;BME280;22607;49.550;11.940;2023-04-06T02:26:19;97119.22;;;-0.21;92.94
36598;BME280;22607;49.550;11.940;2023-04-06T02:28:46;97113.97;;;-0.19;93.58
36598;BME280;22607;49.550;11.940;2023-04-06T02:31:12;97117.22;;;-0.30;95.56
36598;BME280;22607;49.550;11.940;2023-04-06T02:33:41;97117.56;;;-0.22;94.41
36598;BME280;22607;49.550;11.940;2023-04-06T02:36:07;97113.44;;;-0.24;95.92
36598;BME280;22607;49.550;11.940;2023-04-06T02:38:34;97115.19;;;-0.25;97.14
36598;BME280;22607;49.550;11.940;2023-04-06T02:41:00;97108.50;;;-0.15;96.64
36598;BME280;22607;49.550;11.940;2023-04-06T02:43:26;97102.31;;;-0.12;96.38
36598;BME280;22607;49.550;11.940;2023-04-06T02:45:53;97102.81;;;-0.20;98.40
36598;BME280;22607;49.550;11.940;2023-04-06T02:48:19;97105.19;;;-0.17;97.62
36598;BME280;22607;49.550;11.940;2023-04-06T02:50:46;97108.81;;;-0.19;99.10
36598;BME280;22607;49.550;11.940;2023-04-06T02:53:12;97105.84;;;-0.41;100.00
36598;BME280;22607;49.550;11.940;2023-04-06T02:55:38;97108.53;;;-0.29;100.00
36598;BME280;22607;49.550;11.940;2023-04-06T02:58:06;97103.25;;;-0.13;100.00
36598;BME280;22607;49.550;11.940;2023-04-06T03:00:32;97105.53;;;-0.08;99.67
36598;BME280;22607;49.550;11.940;2023-04-06T03:02:58;97104.84;;;-0.25;100.00
36598;BME280;22607;49.550;11.940;2023-04-06T03:05:25;97110.59;;;-0.34;100.00
36598;BME280;22607;49.550;11.940;2023-04-06T03:07:52;97105.69;;;-0.24;97.39
36598;BME280;22607;49.550;11.940;2023-04-06T03:10:18;97103.47;;;-0.31;97.84
36598;BME280;22607;49.550;11.940;2023-04-06T03:12:44;97109.00;;;-0.22;94.74
36598;BME280;22607;49.550;11.940;2023-04-06T03:15:11;97114.78;;;-0.19;94.29
36598;BME280;22607;49.550;11.940;2023-04-06T03:17:38;97108.41;;;-0.13;93.28
36598;BME280;22607;49.550;11.940;2023-04-06T03:20:05;97116.97;;;-0.40;96.58
36598;BME280;22607;49.550;11.940;2023-04-06T03:22:31;97105.19;;;-0.44;97.93
36598;BME280;22607;49.550;11.940;2023-04-06T03:24:57;97113.81;;;-0.31;95.28
36598;BME280;22607;49.550;11.940;2023-04-06T03:27:26;97110.50;;;-0.60;98.44
36598;BME280;22607;49.550;11.940;2023-04-06T03:29:52;97111.97;;;-0.71;99.53
36598;BME280;22607;49.550;11.940;2023-04-06T03:32:18;97112.13;;;-0.59;97.67
36598;BME280;22607;49.550;11.940;2023-04-06T03:34:45;97113.63;;;-0.55;96.66
36598;BME280;22607;49.550;11.940;2023-04-06T03:37:11;97122.97;;;-0.40;94.80
36598;BME280;22607;49.550;11.940;2023-04-06T03:39:38;97126.66;;;-0.44;94.43
36598;BME280;22607;49.550;11.940;2023-04-06T03:42:04;97123.91;;;-0.41;94.22
36598;BME280;22607;49.550;11.940;2023-04-06T03:44:30;97125.09;;;-0.46;95.78
36598;BME280;22607;49.550;11.940;2023-04-06T03:46:57;97129.25;;;-0.44;95.32
36598;BME280;22607;49.550;11.940;2023-04-06T03:49:24;97131.50;;;-0.67;98.12
36598;BME280;22607;49.550;11.940;2023-04-06T03:51:51;97134.50;;;-0.45;95.52
36598;BME280;22607;49.550;11.940;2023-04-06T03:54:17;97132.44;;;-0.40;94.98
36598;BME280;22607;49.550;11.940;2023-04-06T03:56:43;97127.41;;;-0.42;95.47
36598;BME280;22607;49.550;11.940;2023-04-06T03:59:10;97135.91;;;-0.54;98.11
36598;BME280;22607;49.550;11.940;2023-04-06T04:01:36;97133.94;;;-0.50;95.88
36598;BME280;22607;49.550;11.940;2023-04-06T04:04:03;97140.13;;;-0.53;97.11
36598;BME280;22607;49.550;11.940;2023-04-06T04:06:29;97139.13;;;-0.50;97.52
36598;BME280;22607;49.550;11.940;2023-04-06T04:08:56;97141.50;;;-0.47;96.46
36598;BME280;22607;49.550;11.940;2023-04-06T04:11:22;97138.22;;;-0.64;98.52
36598;BME280;22607;49.550;11.940;2023-04-06T04:13:49;97144.31;;;-0.65;96.69
36598;BME280;22607;49.550;11.940;2023-04-06T04:16:15;97141.16;;;-0.56;95.38
36598;BME280;22607;49.550;11.940;2023-04-06T04:18:43;97143.28;;;-0.62;95.57
36598;BME280;22607;49.550;11.940;2023-04-06T04:21:09;97133.06;;;-0.64;95.68
36598;BME280;22607;49.550;11.940;2023-04-06T04:23:36;97144.47;;;-0.68;93.88
36598;BME280;22607;49.550;11.940;2023-04-06T04:26:02;97142.38;;;-0.76;93.39
36598;BME280;22607;49.550;11.940;2023-04-06T04:28:29;97143.69;;;-0.83;92.82
36598;BME280;22607;49.550;11.940;2023-04-06T04:30:56;97145.72;;;-0.88;95.17
36598;BME280;22607;49.550;11.940;2023-04-06T04:33:22;97143.03;;;-0.87;95.33
36598;BME280;22607;49.550;11.940;2023-04-06T04:35:48;97147.06;;;-0.97;94.44
36598;BME280;22607;49.550;11.940;2023-04-06T04:38:15;97142.13;;;-1.00;94.24
36598;BME280;22607;49.550;11.940;2023-04-06T04:40:41;97147.00;;;-1.10;93.92
36598;BME280;22607;49.550;11.940;2023-04-06T04:43:08;97139.16;;;-1.09;96.00
36598;BME280;22607;49.550;11.940;2023-04-06T04:45:34;97144.50;;;-1.12;96.21
36598;BME280;22607;49.550;11.940;2023-04-06T04:48:01;97139.34;;;-1.12;97.13
36598;BME280;22607;49.550;11.940;2023-04-06T04:50:27;97140.06;;;-1.24;97.81
36598;BME280;22607;49.550;11.940;2023-04-06T04:52:53;97138.41;;;-1.11;96.55
36598;BME280;22607;49.550;11.940;2023-04-06T04:55:20;97143.50;;;-1.09;95.71
36598;BME280;22607;49.550;11.940;2023-04-06T04:57:46;97143.94;;;-1.17;95.36
36598;BME280;22607;49.550;11.940;2023-04-06T05:00:13;97143.94;;;-1.17;96.16
36598;BME280;22607;49.550;11.940;2023-04-06T05:02:40;97141.91;;;-1.26;96.40
36598;BME280;22607;49.550;11.940;2023-04-06T05:05:07;97149.47;;;-1.23;98.02
36598;BME280;22607;49.550;11.940;2023-04-06T05:07:33;97146.53;;;-1.17;96.59
36598;BME280;22607;49.550;11.940;2023-04-06T05:10:00;97149.19;;;-1.19;98.09
36598;BME280;22607;49.550;11.940;2023-04-06T05:12:26;97144.56;;;-0.84;93.56
36598;BME280;22607;49.550;11.940;2023-04-06T05:14:56;97143.00;;;-0.58;93.57
36598;BME280;22607;49.550;11.940;2023-04-06T05:17:22;97153.72;;;0.06;89.78
36598;BME280;22607;49.550;11.940;2023-04-06T05:19:48;97150.88;;;0.23;85.76
36598;BME280;22607;49.550;11.940;2023-04-06T05:22:15;97149.91;;;0.78;82.83
36598;BME280;22607;49.550;11.940;2023-04-06T05:24:43;97155.94;;;1.17;78.19
36598;BME280;22607;49.550;11.940;2023-04-06T05:27:10;97154.88;;;1.20;77.29
36598;BME280;22607;49.550;11.940;2023-04-06T05:29:36;97156.28;;;1.50;75.98
36598;BME280;22607;49.550;11.940;2023-04-06T05:32:03;97154.41;;;1.52;74.88
36598;BME280;22607;49.550;11.940;2023-04-06T05:34:29;97151.75;;;2.03;72.45
36598;BME280;22607;49.550;11.940;2023-04-06T05:36:56;97141.84;;;2.68;68.96
36598;BME280;22607;49.550;11.940;2023-04-06T05:39:22;97140.72;;;3.18;65.43
36598;BME280;22607;49.550;11.940;2023-04-06T05:41:49;97139.13;;;3.61;63.23
36598;BME280;22607;49.550;11.940;2023-04-06T05:44:15;97141.28;;;3.45;61.56
36598;BME280;22607;49.550;11.940;2023-04-06T05:46:42;97141.44;;;4.53;60.44
36598;BME280;22607;49.550;11.940;2023-04-06T05:49:08;97147.13;;;5.10;57.36
36598;BME280;22607;49.550;11.940;2023-04-06T05:51:35;97148.47;;;5.36;56.65
36598;BME280;22607;49.550;11.940;2023-04-06T05:54:01;97148.41;;;5.67;54.62
36598;BME280;22607;49.550;11.940;2023-04-06T05:56:28;97136.09;;;5.89;54.50
36598;BME280;22607;49.550;11.940;2023-04-06T05:58:56;97141.78;;;6.43;52.03
36598;BME280;22607;49.550;11.940;2023-04-06T06:01:23;97142.16;;;6.78;51.03
36598;BME280;22607;49.550;11.940;2023-04-06T06:03:49;97140.72;;;7.04;50.60
36598;BME280;22607;49.550;11.940;2023-04-06T06:06:15;97133.13;;;7.11;48.96
36598;BME280;22607;49.550;11.940;2023-04-06T06:08:42;97142.91;;;7.08;49.85
36598;BME280;22607;49.550;11.940;2023-04-06T06:11:08;97137.66;;;7.46;48.99
36598;BME280;22607;49.550;11.940;2023-04-06T06:13:34;97144.31;;;7.69;48.21
36598;BME280;22607;49.550;11.940;2023-04-06T06:16:01;97132.56;;;8.01;47.37
36598;BME280;22607;49.550;11.940;2023-04-06T06:18:31;97132.94;;;8.06;46.81
36598;BME280;22607;49.550;11.940;2023-04-06T06:20:58;97136.94;;;8.19;46.61
36598;BME280;22607;49.550;11.940;2023-04-06T06:23:24;97141.66;;;8.33;45.26
36598;BME280;22607;49.550;11.940;2023-04-06T06:25:51;97139.19;;;8.68;45.32
36598;BME280;22607;49.550;11.940;2023-04-06T06:28:17;97139.66;;;8.90;44.52
36598;BME280;22607;49.550;11.940;2023-04-06T06:30:44;97147.44;;;8.73;45.16
36598;BME280;22607;49.550;11.940;2023-04-06T06:33:10;97138.13;;;8.79;44.78
36598;BME280;22607;49.550;11.940;2023-04-06T06:35:37;97154.31;;;9.01;44.15
36598;BME280;22607;49.550;11.940;2023-04-06T06:38:03;97148.09;;;9.37;44.02
36598;BME280;22607;49.550;11.940;2023-04-06T06:40:31;97151.47;;;9.21;44.47
36598;BME280;22607;49.550;11.940;2023-04-06T06:42:57;97146.28;;;9.29;44.00
36598;BME280;22607;49.550;11.940;2023-04-06T06:45:24;97153.34;;;9.37;43.69
36598;BME280;22607;49.550;11.940;2023-04-06T06:47:51;97141.88;;;9.38;43.26
36598;BME280;22607;49.550;11.940;2023-04-06T06:50:20;97149.94;;;9.44;42.84
36598;BME280;22607;49.550;11.940;2023-04-06T06:52:47;97151.41;;;9.04;42.67
36598;BME280;22607;49.550;11.940;2023-04-06T06:55:13;97150.63;;;8.85;43.40
36598;BME280;22607;49.550;11.940;2023-04-06T06:57:43;97150.78;;;8.47;42.97
36598;BME280;22607;49.550;11.940;2023-04-06T07:00:12;97153.38;;;8.57;43.41
36598;BME280;22607;49.550;11.940;2023-04-06T07:02:39;97149.63;;;8.60;42.85
36598;BME280;22607;49.550;11.940;2023-04-06T07:05:06;97158.81;;;8.64;43.08
36598;BME280;22607;49.550;11.940;2023-04-06T07:07:52;97158.22;;;8.97;42.97
36598;BME280;22607;49.550;11.940;2023-04-06T07:10:18;97160.53;;;9.00;42.56
36598;BME280;22607;49.550;11.940;2023-04-06T07:12:45;97157.50;;;9.13;42.01
36598;BME280;22607;49.550;11.940;2023-04-06T07:15:12;97153.56;;;9.43;41.49
36598;BME280;22607;49.550;11.940;2023-04-06T07:17:38;97151.16;;;10.18;41.17
36598;BME280;22607;49.550;11.940;2023-04-06T07:20:07;97151.97;;;10.35;39.02
36598;BME280;22607;49.550;11.940;2023-04-06T07:22:33;97151.75;;;9.95;42.53
36598;BME280;22607;49.550;11.940;2023-04-06T07:25:00;97159.00;;;8.71;43.52
36598;BME280;22607;49.550;11.940;2023-04-06T07:27:27;97160.41;;;8.47;44.01
36598;BME280;22607;49.550;11.940;2023-04-06T07:29:54;97160.38;;;9.01;43.15
36598;BME280;22607;49.550;11.940;2023-04-06T07:32:21;97159.81;;;9.51;43.79
36598;BME280;22607;49.550;11.940;2023-04-06T07:34:48;97154.75;;;10.17;42.82
36598;BME280;22607;49.550;11.940;2023-04-06T07:37:14;97155.44;;;10.36;42.61
36598;BME280;22607;49.550;11.940;2023-04-06T07:39:40;97152.09;;;11.25;39.04
36598;BME280;22607;49.550;11.940;2023-04-06T07:42:09;97145.84;;;11.35;38.80
36598;BME280;22607;49.550;11.940;2023-04-06T07:44:36;97154.78;;;11.57;39.05
36598;BME280;22607;49.550;11.940;2023-04-06T07:47:02;97151.19;;;11.01;39.98
36598;BME280;22607;49.550;11.940;2023-04-06T07:49:29;97145.97;;;10.76;40.04
36598;BME280;22607;49.550;11.940;2023-04-06T07:51:56;97150.34;;;11.09;40.13
36598;BME280;22607;49.550;11.940;2023-04-06T07:54:23;97146.59;;;12.24;37.74
36598;BME280;22607;49.550;11.940;2023-04-06T07:56:49;97142.50;;;12.21;37.34
36598;BME280;22607;49.550;11.940;2023-04-06T07:59:16;97143.16;;;11.83;36.65
36598;BME280;22607;49.550;11.940;2023-04-06T08:01:42;97148.66;;;11.65;38.04
36598;BME280;22607;49.550;11.940;2023-04-06T08:04:09;97143.75;;;11.70;37.21
36598;BME280;22607;49.550;11.940;2023-04-06T08:06:36;97141.53;;;12.60;37.24
36598;BME280;22607;49.550;11.940;2023-04-06T08:09:02;97131.06;;;12.52;36.58
36598;BME280;22607;49.550;11.940;2023-04-06T08:11:29;97137.28;;;12.04;36.76
36598;BME280;22607;49.550;11.940;2023-04-06T08:13:56;97136.34;;;12.29;36.46
36598;BME280;22607;49.550;11.940;2023-04-06T08:16:24;97142.41;;;12.06;36.90
36598;BME280;22607;49.550;11.940;2023-04-06T08:18:50;97142.69;;;12.34;34.77
36598;BME280;22607;49.550;11.940;2023-04-06T08:21:17;97140.06;;;11.79;35.98
36598;BME280;22607;49.550;11.940;2023-04-06T08:23:44;97137.22;;;12.21;36.45
36598;BME280;22607;49.550;11.940;2023-04-06T08:26:12;97134.66;;;12.04;35.17
36598;BME280;22607;49.550;11.940;2023-04-06T08:28:38;97142.03;;;12.41;35.60
36598;BME280;22607;49.550;11.940;2023-04-06T08:31:05;97145.34;;;12.34;33.60
36598;BME280;22607;49.550;11.940;2023-04-06T08:33:32;97139.84;;;12.44;35.08
36598;BME280;22607;49.550;11.940;2023-04-06T08:36:08;97134.13;;;12.41;35.71
36598;BME280;22607;49.550;11.940;2023-04-06T08:38:35;97123.66;;;12.71;34.18
36598;BME280;22607;49.550;11.940;2023-04-06T08:41:08;97127.69;;;12.43;33.29
36598;BME280;22607;49.550;11.940;2023-04-06T08:43:48;97129.41;;;12.28;32.38
36598;BME280;22607;49.550;11.940;2023-04-06T08:46:15;97128.13;;;12.47;32.73
36598;BME280;22607;49.550;11.940;2023-04-06T08:48:42;97122.19;;;12.30;32.58
36598;BME280;22607;49.550;11.940;2023-04-06T08:51:09;97120.28;;;12.39;30.55
36598;BME280;22607;49.550;11.940;2023-04-06T08:53:36;97126.03;;;12.42;31.21
36598;BME280;22607;49.550;11.940;2023-04-06T08:56:03;97123.75;;;12.16;31.00
36598;BME280;22607;49.550;11.940;2023-04-06T08:58:32;97122.91;;;12.24;31.20
36598;BME280;22607;49.550;11.940;2023-04-06T09:01:06;97123.69;;;12.24;30.83
36598;BME280;22607;49.550;11.940;2023-04-06T09:03:36;97125.13;;;12.12;31.23
36598;BME280;22607;49.550;11.940;2023-04-06T09:06:03;97123.94;;;12.14;30.97
36598;BME280;22607;49.550;11.940;2023-04-06T09:08:30;97128.31;;;12.45;32.33
36598;BME280;22607;49.550;11.940;2023-04-06T09:10:56;97125.66;;;12.45;31.32
36598;BME280;22607;49.550;11.940;2023-04-06T09:13:23;97127.22;;;12.40;32.13
36598;BME280;22607;49.550;11.940;2023-04-06T09:16:00;97126.84;;;12.66;33.57
36598;BME280;22607;49.550;11.940;2023-04-06T09:18:27;97123.72;;;13.01;33.42
36598;BME280;22607;49.550;11.940;2023-04-06T09:21:04;97127.91;;;13.10;31.28
36598;BME280;22607;49.550;11.940;2023-04-06T09:23:30;97123.44;;;12.96;31.53
36598;BME280;22607;49.550;11.940;2023-04-06T09:26:10;97119.78;;;12.82;32.40
36598;BME280;22607;49.550;11.940;2023-04-06T09:28:50;97119.44;;;13.45;32.12
36598;BME280;22607;49.550;11.940;2023-04-06T09:31:24;97116.97;;;12.98;32.39
36598;BME280;22607;49.550;11.940;2023-04-06T09:33:51;97115.91;;;13.53;33.08
36598;BME280;22607;49.550;11.940;2023-04-06T09:36:18;97109.91;;;13.96;30.73
36598;BME280;22607;49.550;11.940;2023-04-06T09:38:51;97107.19;;;13.89;31.31
36598;BME280;22607;49.550;11.940;2023-04-06T09:41:25;97112.50;;;12.99;33.99
36598;BME280;22607;49.550;11.940;2023-04-06T09:43:52;97107.13;;;12.92;32.85
36598;BME280;22607;49.550;11.940;2023-04-06T09:46:27;97107.13;;;13.37;32.50
36598;BME280;22607;49.550;11.940;2023-04-06T09:48:55;97094.69;;;13.61;30.89
36598;BME280;22607;49.550;11.940;2023-04-06T09:51:22;97109.00;;;12.06;31.70
36598;BME280;22607;49.550;11.940;2023-04-06T09:53:52;97103.72;;;11.75;32.90
36598;BME280;22607;49.550;11.940;2023-04-06T09:56:20;97107.22;;;11.67;34.07
36598;BME280;22607;49.550;11.940;2023-04-06T09:58:49;97111.06;;;11.08;35.08
36598;BME280;22607;49.550;11.940;2023-04-06T10:01:19;97102.97;;;11.66;34.49
36598;BME280;22607;49.550;11.940;2023-04-06T10:06:25;97108.53;;;10.49;36.71
36598;BME280;22607;49.550;11.940;2023-04-06T10:08:53;97103.94;;;10.60;35.32
36598;BME280;22607;49.550;11.940;2023-04-06T10:11:22;97102.63;;;10.47;35.58
36598;BME280;22607;49.550;11.940;2023-04-06T10:13:48;97101.78;;;10.63;35.35
36598;BME280;22607;49.550;11.940;2023-04-06T10:16:16;97099.38;;;11.59;34.37
36598;BME280;22607;49.550;11.940;2023-04-06T10:18:44;97100.34;;;11.26;33.40
36598;BME280;22607;49.550;11.940;2023-04-06T10:21:14;97078.75;;;12.49;32.14
36598;BME280;22607;49.550;11.940;2023-04-06T10:23:47;97089.75;;;12.29;31.61
36598;BME280;22607;49.550;11.940;2023-04-06T10:26:14;97086.97;;;12.99;30.89
36598;BME280;22607;49.550;11.940;2023-04-06T10:28:43;97087.22;;;12.90;31.84
36598;BME280;22607;49.550;11.940;2023-04-06T10:31:09;97084.72;;;13.26;32.39
36598;BME280;22607;49.550;11.940;2023-04-06T10:33:36;97084.31;;;13.30;30.87
36598;BME280;22607;49.550;11.940;2023-04-06T10:38:38;97072.69;;;13.54;31.37
36598;BME280;22607;49.550;11.940;2023-04-06T10:41:10;97061.44;;;14.33;31.53
36598;BME280;22607;49.550;11.940;2023-04-06T10:43:38;97061.59;;;15.10;30.84
36598;BME280;22607;49.550;11.940;2023-04-06T10:46:05;97063.88;;;14.85;29.97
36598;BME280;22607;49.550;11.940;2023-04-06T10:48:51;97063.25;;;14.54;28.69
36598;BME280;22607;49.550;11.940;2023-04-06T10:51:17;97062.47;;;14.10;31.19
36598;BME280;22607;49.550;11.940;2023-04-06T10:53:45;97058.84;;;14.11;30.53
36598;BME280;22607;49.550;11.940;2023-04-06T10:56:15;97052.19;;;13.93;29.55
36598;BME280;22607;49.550;11.940;2023-04-06T10:58:46;97056.41;;;13.50;30.34
36598;BME280;22607;49.550;11.940;2023-04-06T11:01:16;97060.72;;;13.06;30.78
36598;BME280;22607;49.550;11.940;2023-04-06T11:06:10;97064.81;;;12.40;32.61
36598;BME280;22607;49.550;11.940;2023-04-06T11:08:37;97062.28;;;12.47;34.67
36598;BME280;22607;49.550;11.940;2023-04-06T11:11:06;97058.34;;;12.96;33.63
36598;BME280;22607;49.550;11.940;2023-04-06T11:13:40;97060.97;;;13.11;32.62
36598;BME280;22607;49.550;11.940;2023-04-06T11:16:11;97050.41;;;13.78;30.77
36598;BME280;22607;49.550;11.940;2023-04-06T11:18:38;97045.75;;;13.81;30.19
36598;BME280;22607;49.550;11.940;2023-04-06T11:21:05;97038.41;;;14.20;30.92
36598;BME280;22607;49.550;11.940;2023-04-06T11:23:31;97041.41;;;14.16;30.13
36598;BME280;22607;49.550;11.940;2023-04-06T11:25:58;97026.97;;;13.90;30.70
36598;BME280;22607;49.550;11.940;2023-04-06T11:28:24;97035.47;;;13.49;31.86
36598;BME280;22607;49.550;11.940;2023-04-06T11:30:51;97027.00;;;13.54;31.31
36598;BME280;22607;49.550;11.940;2023-04-06T11:33:21;97024.31;;;13.69;33.41
36598;BME280;22607;49.550;11.940;2023-04-06T11:35:49;97017.16;;;13.84;31.24
36598;BME280;22607;49.550;11.940;2023-04-06T11:38:17;97009.09;;;13.49;31.14
36598;BME280;22607;49.550;11.940;2023-04-06T11:40:44;97022.53;;;13.54;33.34
36598;BME280;22607;49.550;11.940;2023-04-06T11:43:11;97017.34;;;13.61;31.86
36598;BME280;22607;49.550;11.940;2023-04-06T11:45:43;97017.88;;;13.04;34.68
36598;BME280;22607;49.550;11.940;2023-04-06T11:48:19;97009.16;;;13.04;34.95
36598;BME280;22607;49.550;11.940;2023-04-06T11:50:47;97009.06;;;12.67;32.69
36598;BME280;22607;49.550;11.940;2023-04-06T11:53:14;97009.84;;;12.37;33.46
36598;BME280;22607;49.550;11.940;2023-04-06T11:55:41;97007.78;;;12.47;31.50
36598;BME280;22607;49.550;11.940;2023-04-06T11:58:11;96999.66;;;11.95;31.78
36598;BME280;22607;49.550;11.940;2023-04-06T12:00:37;97014.56;;;11.80;32.36
36598;BME280;22607;49.550;11.940;2023-04-06T12:03:04;97006.84;;;12.25;32.57
36598;BME280;22607;49.550;11.940;2023-04-06T12:05:30;96994.91;;;12.53;31.79
36598;BME280;22607;49.550;11.940;2023-04-06T12:07:58;96992.28;;;12.68;32.93
36598;BME280;22607;49.550;11.940;2023-04-06T12:10:28;96992.44;;;12.81;32.18
36598;BME280;22607;49.550;11.940;2023-04-06T12:12:54;96990.00;;;12.65;31.67
36598;BME280;22607;49.550;11.940;2023-04-06T12:15:21;96999.97;;;12.39;36.66
36598;BME280;22607;49.550;11.940;2023-04-06T12:17:47;96998.66;;;12.20;34.43
36598;BME280;22607;49.550;11.940;2023-04-06T12:20:15;96995.34;;;12.56;33.16
36598;BME280;22607;49.550;11.940;2023-04-06T12:22:52;96983.91;;;12.49;33.44
36598;BME280;22607;49.550;11.940;2023-04-06T12:25:18;96979.50;;;13.02;33.94
36598;BME280;22607;49.550;11.940;2023-04-06T12:27:45;96974.28;;;13.23;33.24
36598;BME280;22607;49.550;11.940;2023-04-06T12:30:11;96975.84;;;13.18;33.37
36598;BME280;22607;49.550;11.940;2023-04-06T12:32:38;96979.84;;;13.13;34.86
36598;BME280;22607;49.550;11.940;2023-04-06T12:35:04;96970.91;;;13.30;33.53
36598;BME280;22607;49.550;11.940;2023-04-06T12:37:31;96968.25;;;12.63;32.64
36598;BME280;22607;49.550;11.940;2023-04-06T12:39:57;96962.63;;;13.33;32.73
36598;BME280;22607;49.550;11.940;2023-04-06T12:42:24;96967.94;;;13.18;34.15
36598;BME280;22607;49.550;11.940;2023-04-06T12:44:50;96954.13;;;13.37;32.42
36598;BME280;22607;49.550;11.940;2023-04-06T12:47:17;96963.66;;;13.17;32.83
36598;BME280;22607;49.550;11.940;2023-04-06T12:49:44;96959.16;;;13.32;33.01
36598;BME280;22607;49.550;11.940;2023-04-06T12:52:10;96954.78;;;13.39;32.23
36598;BME280;22607;49.550;11.940;2023-04-06T12:54:37;96951.91;;;13.56;32.52
36598;BME280;22607;49.550;11.940;2023-04-06T12:57:03;96958.66;;;13.22;31.91
36598;BME280;22607;49.550;11.940;2023-04-06T12:59:30;96959.22;;;13.17;33.77
36598;BME280;22607;49.550;11.940;2023-04-06T13:02:01;96958.63;;;13.37;32.83